Time;durP1;ratioP1;P1;durP2;ratioP2;P2;SDS_P1;SDS_P2;PMS_P1;PMS_P2;Temp;Humidity;BMP_temperature;BMP_pressure;BME280_temperature;BME280_humidity;BME280_pressure;Samples;Min_cycle;Max_cycle;Signal;HPM_P1;HPM_P2
2022/09/01 00:02:07;;;;;;;5.88;2.80;;;13.70;99.90;;;;;;5043795;28;20397;-68
2022/09/01 00:04:40;;;;;;;6.60;2.63;;;13.70;99.90;;;;;;5044865;28;20716;-67
2022/09/01 00:07:07;;;;;;;4.95;2.58;;;13.70;99.90;;;;;;5043396;28;20040;-67
2022/09/01 00:09:34;;;;;;;4.53;2.60;;;13.70;99.90;;;;;;5044683;28;20136;-68
2022/09/01 00:12:01;;;;;;;5.82;2.65;;;13.70;99.90;;;;;;5060400;28;20487;-68
2022/09/01 00:14:31;;;;;;;7.85;2.42;;;13.60;99.90;;;;;;5042820;28;20112;-67
2022/09/01 00:16:59;;;;;;;4.72;2.40;;;13.60;99.90;;;;;;5043819;28;20379;-67
2022/09/01 00:19:25;;;;;;;4.28;2.38;;;13.50;99.90;;;;;;5045796;28;21454;-67
2022/09/01 00:21:51;;;;;;;5.25;2.55;;;13.50;99.90;;;;;;5043132;28;20408;-67
2022/09/01 00:24:18;;;;;;;3.00;2.60;;;13.50;99.90;;;;;;5043233;28;20033;-67
2022/09/01 00:26:45;;;;;;;4.88;2.38;;;13.50;99.90;;;;;;5044412;28;20435;-68
2022/09/01 00:29:11;;;;;;;7.97;2.53;;;13.50;99.90;;;;;;5044950;28;20080;-67
2022/09/01 00:31:37;;;;;;;4.55;2.60;;;13.40;99.90;;;;;;5043191;28;20044;-67
2022/09/01 00:34:03;;;;;;;7.00;2.65;;;13.40;99.90;;;;;;5044158;28;20510;-67
2022/09/01 00:36:29;;;;;;;4.28;2.30;;;13.30;99.90;;;;;;5044223;28;20029;-68
2022/09/01 00:38:54;;;;;;;6.13;2.70;;;13.30;99.90;;;;;;5060828;28;20045;-67
2022/09/01 00:41:23;;;;;;;6.13;2.40;;;13.30;99.90;;;;;;5057589;28;20061;-68
2022/09/01 00:43:55;;;;;;;3.13;2.50;;;13.30;99.90;;;;;;5055831;28;20041;-67
2022/09/01 00:46:31;;;;;;;3.63;2.60;;;13.20;99.90;;;;;;5058221;28;20045;-67
2022/09/01 00:49:10;;;;;;;7.05;2.55;;;13.20;99.90;;;;;;5045511;28;20052;-68
2022/09/01 00:51:39;;;;;;;8.70;2.55;;;13.20;99.90;;;;;;5041143;28;20472;-67
2022/09/01 00:54:07;;;;;;;5.25;2.65;;;13.20;99.90;;;;;;5044061;28;20045;-68
2022/09/01 00:56:36;;;;;;;6.43;2.85;;;13.20;99.90;;;;;;5060392;28;20098;-67
2022/09/01 00:59:05;;;;;;;6.10;2.85;;;13.20;99.90;;;;;;5043225;28;20044;-67
2022/09/01 01:01:30;;;;;;;4.63;2.22;;;13.10;99.90;;;;;;5055642;28;20048;-67
2022/09/01 01:04:01;;;;;;;4.57;2.75;;;13.10;99.90;;;;;;5047705;28;20041;-67
2022/09/01 01:06:29;;;;;;;4.45;2.50;;;13.10;99.90;;;;;;5048986;28;20045;-67
2022/09/01 01:08:59;;;;;;;5.25;2.63;;;13.10;99.90;;;;;;5049908;28;20049;-68
2022/09/01 01:11:31;;;;;;;5.15;2.60;;;13.00;99.90;;;;;;5049264;28;20087;-67
2022/09/01 01:14:16;;;;;;;6.67;2.87;;;13.00;99.90;;;;;;5050459;28;20041;-68
2022/09/01 01:16:45;;;;;;;5.30;2.92;;;13.00;99.90;;;;;;5049810;28;20422;-67
2022/09/01 01:23:01;;;;;;;4.95;2.63;;;13.00;99.90;;;;;;5045732;28;20403;-67
2022/09/01 01:24:54;;;;;;;6.85;2.72;;;12.90;99.90;;;;;;5064264;28;20126;-67
2022/09/01 01:27:20;;;;;;;3.53;2.63;;;12.90;99.90;;;;;;5044408;28;20395;-68
2022/09/01 01:29:47;;;;;;;5.20;2.63;;;12.90;99.90;;;;;;5050496;28;20119;-67
2022/09/01 01:32:13;;;;;;;5.18;2.72;;;12.80;99.90;;;;;;5048155;28;20094;-68
2022/09/01 01:34:41;;;;;;;5.60;2.65;;;12.80;99.90;;;;;;5045436;28;20042;-67
2022/09/01 01:37:09;;;;;;;5.28;2.75;;;12.80;99.90;;;;;;5047903;28;20385;-68
2022/09/01 01:39:39;;;;;;;5.65;2.67;;;12.80;99.90;;;;;;5046162;28;20051;-67
2022/09/01 01:42:08;;;;;;;4.03;2.90;;;12.70;99.90;;;;;;5045842;28;20155;-68
2022/09/01 01:44:36;;;;;;;3.25;2.55;;;12.70;99.90;;;;;;5049795;28;20041;-68
2022/09/01 01:47:07;;;;;;;3.40;3.08;;;12.70;99.90;;;;;;5038562;28;20446;-67
2022/09/01 01:49:33;;;;;;;5.50;3.03;;;12.70;99.90;;;;;;5047336;28;20133;-67
2022/09/01 01:52:00;;;;;;;4.38;2.88;;;12.60;99.90;;;;;;5051056;28;20040;-66
2022/09/01 01:54:30;;;;;;;5.43;2.92;;;12.50;99.90;;;;;;5049899;28;20028;-67
2022/09/01 01:57:00;;;;;;;4.40;3.10;;;12.60;99.90;;;;;;5045330;28;20037;-67
2022/09/01 01:59:28;;;;;;;3.63;2.70;;;12.50;99.90;;;;;;5051233;28;20087;-67
2022/09/01 02:01:55;;;;;;;4.55;3.00;;;12.40;99.90;;;;;;5049280;28;20045;-67
2022/09/01 02:04:21;;;;;;;6.55;2.90;;;12.40;99.90;;;;;;5047252;28;20037;-67
2022/09/01 02:06:48;;;;;;;5.95;2.90;;;12.40;99.90;;;;;;5051804;28;20476;-67
2022/09/01 02:09:16;;;;;;;4.10;2.80;;;12.30;99.90;;;;;;5032831;28;20045;-67
2022/09/01 02:11:44;;;;;;;5.93;3.40;;;12.30;99.90;;;;;;5047009;28;20056;-67
2022/09/01 02:14:12;;;;;;;4.22;2.80;;;12.30;99.90;;;;;;5053821;28;20033;-67
2022/09/01 02:16:38;;;;;;;5.30;3.00;;;12.30;99.90;;;;;;5048484;28;20041;-67
2022/09/01 02:19:07;;;;;;;3.85;2.70;;;12.20;99.90;;;;;;5044273;28;20040;-67
2022/09/01 02:21:33;;;;;;;6.13;3.00;;;12.20;99.90;;;;;;5047210;28;20045;-67
2022/09/01 02:24:04;;;;;;;6.45;2.97;;;12.10;99.90;;;;;;5042686;28;20029;-67
2022/09/01 02:26:39;;;;;;;3.83;2.77;;;12.10;99.90;;;;;;5047460;28;20041;-66
2022/09/01 02:29:08;;;;;;;5.95;3.50;;;12.10;99.90;;;;;;5025387;28;20132;-66
2022/09/01 02:31:38;;;;;;;7.78;3.13;;;12.10;99.90;;;;;;5044325;28;20090;-67
2022/09/01 02:34:12;;;;;;;4.38;3.22;;;12.10;99.90;;;;;;5041363;28;20053;-67
2022/09/01 02:36:46;;;;;;;5.97;3.05;;;12.00;99.90;;;;;;5040444;28;20044;-67
2022/09/01 02:39:13;;;;;;;4.30;3.00;;;12.00;99.90;;;;;;5043759;28;20427;-67
2022/09/01 02:41:40;;;;;;;3.45;3.00;;;12.00;99.90;;;;;;5042109;28;20103;-67
2022/09/01 02:44:13;;;;;;;4.13;3.00;;;12.00;99.90;;;;;;5043349;28;20044;-67
2022/09/01 02:46:41;;;;;;;5.40;3.00;;;12.00;99.90;;;;;;5059983;28;20045;-67
2022/09/01 02:49:18;;;;;;;4.75;2.90;;;11.90;99.90;;;;;;5045551;28;20041;-67
2022/09/01 02:51:47;;;;;;;3.50;3.13;;;12.00;99.90;;;;;;5043478;28;20561;-66
2022/09/01 02:54:16;;;;;;;3.53;2.80;;;11.90;99.90;;;;;;5043640;28;20359;-67
2022/09/01 02:56:43;;;;;;;5.28;3.20;;;11.80;99.90;;;;;;5045114;28;20048;-67
2022/09/01 02:59:11;;;;;;;3.90;2.97;;;11.90;99.90;;;;;;5043538;28;20040;-67
2022/09/01 03:01:38;;;;;;;4.10;3.13;;;11.90;99.90;;;;;;5043908;28;20049;-67
2022/09/01 03:04:07;;;;;;;4.25;2.92;;;11.80;99.90;;;;;;5043289;28;20072;-67
2022/09/01 03:06:35;;;;;;;4.03;3.22;;;11.90;99.90;;;;;;5040698;28;20056;-67
2022/09/01 03:09:03;;;;;;;6.13;3.05;;;11.80;99.90;;;;;;5060890;28;20194;-67
2022/09/01 03:11:35;;;;;;;4.38;3.55;;;11.80;99.90;;;;;;5058683;28;20044;-67
2022/09/01 03:14:01;;;;;;;5.47;3.15;;;11.80;99.90;;;;;;5061357;28;20025;-67
2022/09/01 03:16:29;;;;;;;3.88;3.10;;;11.80;99.90;;;;;;5045180;28;20025;-67
2022/09/01 03:18:55;;;;;;;5.55;3.35;;;11.80;99.90;;;;;;5045149;28;20091;-66
2022/09/01 03:21:22;;;;;;;7.10;3.08;;;11.80;99.90;;;;;;5042385;28;20044;-67
2022/09/01 03:23:51;;;;;;;3.97;3.30;;;11.80;99.90;;;;;;5042887;28;20514;-67
2022/09/01 03:26:19;;;;;;;4.47;3.10;;;11.80;99.90;;;;;;5058354;28;20045;-67
2022/09/01 03:28:46;;;;;;;4.88;3.22;;;11.70;99.90;;;;;;5053475;28;20049;-66
2022/09/01 03:31:12;;;;;;;7.07;3.33;;;11.80;99.90;;;;;;5043987;28;20036;-67
2022/09/01 03:33:38;;;;;;;4.35;3.33;;;11.70;99.90;;;;;;5037655;28;20034;-67
2022/09/01 03:36:05;;;;;;;5.15;3.40;;;11.70;99.90;;;;;;5044091;28;20178;-66
2022/09/01 03:38:31;;;;;;;3.70;2.92;;;11.70;99.90;;;;;;5037456;28;20039;-67
2022/09/01 03:41:03;;;;;;;5.55;3.35;;;11.70;99.90;;;;;;5054765;28;20045;-67
2022/09/01 03:43:30;;;;;;;6.07;3.65;;;11.70;99.90;;;;;;5039136;28;20510;-67
2022/09/01 03:45:59;;;;;;;5.88;3.60;;;11.70;99.90;;;;;;5036203;28;20480;-66
2022/09/01 03:48:30;;;;;;;5.43;3.50;;;11.70;99.90;;;;;;5038541;28;20033;-67
2022/09/01 03:51:01;;;;;;;5.05;3.17;;;11.60;99.90;;;;;;5040854;28;20052;-67
2022/09/01 03:53:28;;;;;;;3.42;3.10;;;11.70;99.90;;;;;;5037187;28;20037;-66
2022/09/01 03:55:56;;;;;;;6.13;3.50;;;11.60;99.90;;;;;;5033956;28;20479;-67
2022/09/01 03:58:22;;;;;;;8.32;3.58;;;11.60;99.90;;;;;;5033351;28;20049;-67
2022/09/01 04:00:54;;;;;;;4.68;3.20;;;11.60;99.90;;;;;;5042119;28;20056;-66
2022/09/01 04:03:24;;;;;;;4.22;3.42;;;11.60;99.90;;;;;;5039311;28;20449;-67
2022/09/01 04:05:51;;;;;;;3.90;3.25;;;11.60;99.90;;;;;;5038457;28;20094;-67
2022/09/01 04:08:19;;;;;;;6.72;3.33;;;11.60;99.90;;;;;;5032677;28;20128;-67
2022/09/01 04:10:50;;;;;;;8.45;3.70;;;11.60;99.90;;;;;;5045561;28;20037;-67
2022/09/01 04:13:22;;;;;;;4.57;3.53;;;11.60;99.90;;;;;;5043896;28;20045;-67
2022/09/01 04:15:48;;;;;;;4.00;3.50;;;11.50;99.90;;;;;;5059431;28;20046;-67
2022/09/01 04:18:19;;;;;;;4.93;3.05;;;11.50;99.90;;;;;;5038256;28;20655;-67
2022/09/01 04:20:48;;;;;;;4.13;2.97;;;11.50;99.90;;;;;;5052385;28;20052;-67
2022/09/01 04:23:24;;;;;;;5.63;3.63;;;11.40;99.90;;;;;;5036279;28;20128;-67
2022/09/01 04:26:07;;;;;;;4.25;3.55;;;11.40;99.90;;;;;;5051833;28;20054;-67
2022/09/01 04:28:44;;;;;;;5.18;3.22;;;11.40;99.90;;;;;;5034193;28;20064;-67
2022/09/01 04:31:17;;;;;;;4.00;3.60;;;11.40;99.90;;;;;;5040868;28;20113;-66
2022/09/01 04:33:45;;;;;;;4.38;3.50;;;11.40;99.90;;;;;;5043944;28;20060;-67
2022/09/01 04:36:19;;;;;;;5.03;3.63;;;11.40;99.90;;;;;;5036202;28;20043;-67
2022/09/01 04:38:48;;;;;;;5.10;3.42;;;11.40;99.90;;;;;;5037238;28;20499;-67
2022/09/01 04:41:16;;;;;;;4.18;3.20;;;11.40;99.90;;;;;;5039915;28;20044;-67
2022/09/01 04:43:46;;;;;;;5.53;3.80;;;11.40;99.90;;;;;;5054581;28;20037;-67
2022/09/01 04:46:14;;;;;;;6.95;4.55;;;11.40;99.90;;;;;;5033366;28;20048;-67
2022/09/01 04:48:42;;;;;;;4.07;3.55;;;11.40;99.90;;;;;;5034288;28;20080;-67
2022/09/01 04:51:09;;;;;;;4.60;3.25;;;11.40;99.90;;;;;;5031684;28;20037;-66
2022/09/01 04:53:39;;;;;;;5.85;3.45;;;11.30;99.90;;;;;;5039127;28;20056;-67
2022/09/01 04:56:07;;;;;;;5.45;3.83;;;11.30;99.90;;;;;;5051965;28;20140;-67
2022/09/01 04:58:33;;;;;;;4.32;3.35;;;11.40;99.90;;;;;;5039648;28;20040;-67
2022/09/01 05:01:05;;;;;;;7.97;3.53;;;11.40;99.90;;;;;;5052001;28;20557;-66
2022/09/01 05:03:30;;;;;;;4.78;3.42;;;11.30;99.90;;;;;;5052000;28;20053;-67
2022/09/01 05:06:00;;;;;;;4.90;3.78;;;11.30;99.90;;;;;;5041901;28;20117;-66
2022/09/01 05:08:25;;;;;;;6.38;3.42;;;11.40;99.90;;;;;;5032901;28;20392;-67
2022/09/01 05:10:54;;;;;;;6.45;3.92;;;11.30;99.90;;;;;;5051306;28;20070;-67
2022/09/01 05:13:22;;;;;;;5.32;3.65;;;11.40;99.90;;;;;;5051124;28;20037;-67
2022/09/01 05:16:03;;;;;;;5.20;3.60;;;11.50;99.90;;;;;;5052595;28;20033;-67
2022/09/01 05:18:29;;;;;;;3.80;3.40;;;11.50;99.90;;;;;;5035684;28;20049;-66
2022/09/01 05:20:56;;;;;;;5.55;4.00;;;11.50;99.90;;;;;;5040082;28;20399;-66
2022/09/01 05:23:22;;;;;;;4.75;3.65;;;11.60;99.90;;;;;;5041686;28;20606;-66
2022/09/01 05:25:52;;;;;;;5.50;3.42;;;11.50;99.90;;;;;;5042019;28;20033;-67
2022/09/01 05:28:23;;;;;;;5.65;3.65;;;11.50;99.90;;;;;;5039537;28;21961;-66
2022/09/01 05:30:52;;;;;;;8.80;3.80;;;11.60;99.90;;;;;;5039331;28;20438;-66
2022/09/01 05:33:20;;;;;;;14.02;4.15;;;11.50;99.90;;;;;;5039452;28;20064;-67
2022/09/01 05:35:59;;;;;;;13.93;4.22;;;11.60;99.90;;;;;;5052403;28;20041;-66
2022/09/01 05:38:24;;;;;;;8.98;4.00;;;11.70;99.90;;;;;;5037949;28;20127;-67
2022/09/01 05:41:02;;;;;;;7.65;3.63;;;11.70;99.90;;;;;;5055624;28;20748;-67
2022/09/01 05:43:29;;;;;;;9.23;3.60;;;11.80;99.90;;;;;;5040176;28;20430;-66
2022/09/01 05:45:57;;;;;;;6.88;3.67;;;11.80;99.90;;;;;;5044164;28;20143;-67
2022/09/01 05:48:23;;;;;;;5.85;3.83;;;11.80;99.90;;;;;;5044695;28;20072;-66
2022/09/01 05:50:56;;;;;;;6.05;4.10;;;12.00;99.90;;;;;;5044463;28;20392;-66
2022/09/01 05:53:24;;;;;;;5.57;4.35;;;12.10;99.90;;;;;;5044501;28;20076;-67
2022/09/01 05:55:55;;;;;;;5.53;3.97;;;12.10;99.90;;;;;;5060402;28;20040;-67
2022/09/01 05:58:26;;;;;;;5.85;3.70;;;12.30;99.90;;;;;;5046839;28;20037;-66
2022/09/01 06:00:53;;;;;;;4.45;3.40;;;12.30;99.90;;;;;;5045463;28;20053;-68
2022/09/01 06:03:23;;;;;;;8.48;3.92;;;12.40;99.90;;;;;;5048551;28;20413;-66
2022/09/01 06:05:51;;;;;;;6.72;3.95;;;12.50;99.90;;;;;;5047579;28;20041;-66
2022/09/01 06:08:19;;;;;;;5.75;3.90;;;12.60;99.90;;;;;;5062418;28;20059;-67
2022/09/01 06:10:45;;;;;;;4.60;3.90;;;12.70;99.90;;;;;;5052108;28;20056;-67
2022/09/01 06:13:15;;;;;;;6.45;4.28;;;12.80;99.90;;;;;;5040982;28;20123;-69
2022/09/01 06:15:43;;;;;;;6.95;4.05;;;12.90;99.90;;;;;;5060768;28;20052;-68
2022/09/01 06:18:11;;;;;;;5.18;3.70;;;12.90;99.90;;;;;;5051489;28;20055;-66
2022/09/01 06:20:45;;;;;;;5.63;3.80;;;13.10;99.90;;;;;;5051429;28;20045;-66
2022/09/01 06:23:15;;;;;;;4.82;3.63;;;13.20;99.90;;;;;;5046402;28;20048;-67
2022/09/01 06:25:45;;;;;;;6.65;4.18;;;13.30;99.90;;;;;;5051078;28;20545;-67
2022/09/01 06:28:16;;;;;;;5.43;3.53;;;13.40;99.90;;;;;;5050034;28;20124;-66
2022/09/01 06:30:43;;;;;;;5.82;3.78;;;13.50;99.90;;;;;;5067604;28;20120;-67
2022/09/01 06:33:10;;;;;;;4.40;3.22;;;13.60;99.90;;;;;;5046689;28;20064;-67
2022/09/01 06:35:37;;;;;;;4.53;3.58;;;13.60;99.90;;;;;;5048802;28;20045;-66
2022/09/01 06:38:03;;;;;;;5.15;3.78;;;13.70;99.90;;;;;;5050660;28;20110;-67
2022/09/01 06:40:31;;;;;;;4.65;3.40;;;13.90;99.90;;;;;;5059613;28;20381;-68
2022/09/01 06:42:58;;;;;;;4.80;4.07;;;14.00;99.90;;;;;;5043174;28;20057;-66
2022/09/01 06:45:24;;;;;;;4.50;3.70;;;14.10;99.90;;;;;;5051100;28;20558;-68
2022/09/01 06:47:51;;;;;;;4.78;3.50;;;14.20;99.90;;;;;;5050102;28;20071;-66
2022/09/01 06:50:20;;;;;;;4.20;3.50;;;14.30;99.90;;;;;;5058677;28;20119;-67
2022/09/01 06:52:49;;;;;;;4.43;3.40;;;14.40;99.90;;;;;;5047154;28;20034;-67
2022/09/01 06:55:16;;;;;;;5.55;4.03;;;14.50;99.90;;;;;;5050282;28;20037;-67
2022/09/01 06:57:47;;;;;;;5.22;3.70;;;14.60;99.90;;;;;;5039150;28;20039;-67
2022/09/01 07:00:16;;;;;;;6.38;3.85;;;14.70;99.90;;;;;;5037077;28;20080;-67
2022/09/01 07:02:52;;;;;;;5.68;4.10;;;14.80;99.90;;;;;;5030221;28;20084;-68
2022/09/01 07:05:20;;;;;;;7.20;3.63;;;15.00;99.90;;;;;;5039073;28;20040;-67
2022/09/01 07:07:50;;;;;;;4.53;3.88;;;15.10;99.90;;;;;;5055235;28;20487;-67
2022/09/01 07:10:19;;;;;;;5.07;3.35;;;15.20;99.90;;;;;;5046765;28;20041;-68
2022/09/01 07:12:46;;;;;;;4.90;3.60;;;15.30;99.90;;;;;;5037883;28;20150;-68
2022/09/01 07:15:16;;;;;;;6.35;3.40;;;15.40;99.90;;;;;;5048427;28;20124;-67
2022/09/01 07:17:48;;;;;;;4.95;3.75;;;15.60;99.90;;;;;;5050094;28;20492;-67
2022/09/01 07:20:14;;;;;;;;;;;15.60;99.90;;;;;;5048228;28;20045;-69
2022/09/01 07:22:40;;;;;;;7.38;3.95;;;15.70;99.90;;;;;;5052882;28;19966;-67
2022/09/01 07:25:09;;;;;;;4.32;3.63;;;15.90;99.90;;;;;;5054008;28;20033;-67
2022/09/01 07:27:35;;;;;;;5.25;3.30;;;16.00;99.90;;;;;;5046503;28;20044;-68
2022/09/01 07:30:02;;;;;;;3.53;3.22;;;16.10;99.90;;;;;;5047112;28;20041;-67
2022/09/01 07:32:29;;;;;;;5.25;3.38;;;16.20;99.90;;;;;;5049547;28;20690;-66
2022/09/01 07:34:55;;;;;;;5.20;3.38;;;16.30;99.90;;;;;;5046426;28;20041;-67
2022/09/01 07:37:21;;;;;;;4.45;3.10;;;16.40;99.90;;;;;;5050025;28;20095;-68
2022/09/01 07:39:47;;;;;;;4.70;2.95;;;16.50;99.90;;;;;;5057222;28;20049;-68
2022/09/01 07:42:15;;;;;;;4.00;2.92;;;16.60;99.90;;;;;;5058166;28;20098;-67
2022/09/01 07:44:41;;;;;;;6.38;2.88;;;16.70;99.90;;;;;;5045853;28;20076;-70
2022/09/01 07:47:08;;;;;;;4.15;2.85;;;16.80;99.90;;;;;;5029988;28;20084;-68
2022/09/01 07:49:36;;;;;;;3.42;2.65;;;16.90;99.90;;;;;;5035521;28;20068;-67
2022/09/01 07:52:03;;;;;;;3.97;2.95;;;16.90;99.90;;;;;;5048008;28;20395;-69
2022/09/01 07:54:29;;;;;;;3.30;2.85;;;17.10;99.90;;;;;;5064532;28;20049;-67
2022/09/01 07:56:55;;;;;;;4.85;2.70;;;17.20;99.90;;;;;;5050743;28;20045;-69
2022/09/01 07:59:20;;;;;;;4.53;2.70;;;17.30;99.90;;;;;;5046786;28;20434;-68
2022/09/01 08:01:46;;;;;;;2.88;2.55;;;17.40;99.90;;;;;;5048518;28;20106;-68
2022/09/01 08:04:12;;;;;;;4.47;2.90;;;17.50;99.90;;;;;;5048991;28;20322;-68
2022/09/01 08:06:38;;;;;;;5.53;2.97;;;17.70;99.90;;;;;;5048540;28;21512;-69
2022/09/01 08:09:09;;;;;;;3.97;2.95;;;17.70;99.90;;;;;;5046763;28;20128;-69
2022/09/01 08:11:35;;;;;;;4.38;2.70;;;17.90;99.90;;;;;;5048468;28;20087;-69
2022/09/01 08:14:01;;;;;;;4.13;2.67;;;18.00;99.90;;;;;;5047055;28;20044;-70
2022/09/01 08:16:28;;;;;;;7.43;2.55;;;18.10;99.90;;;;;;5049857;28;20056;-69
2022/09/01 08:18:54;;;;;;;7.28;2.70;;;18.20;99.90;;;;;;5049496;28;20052;-69
2022/09/01 08:21:22;;;;;;;2.92;2.50;;;18.40;99.90;;;;;;5047823;28;20048;-68
2022/09/01 08:23:48;;;;;;;5.97;2.65;;;18.40;99.90;;;;;;5049584;28;20049;-69
2022/09/01 08:26:16;;;;;;;4.13;2.50;;;18.50;99.90;;;;;;5049346;28;20053;-69
2022/09/01 08:28:42;;;;;;;2.80;2.40;;;18.60;99.90;;;;;;5040839;28;20037;-68
2022/09/01 08:31:14;;;;;;;2.90;2.60;;;18.70;99.90;;;;;;5035789;28;20045;-69
2022/09/01 08:33:40;;;;;;;;;;;18.80;99.90;;;;;;5050151;28;20044;-69
2022/09/01 08:36:08;;;;;;;4.35;2.45;;;18.90;99.90;;;;;;5049280;28;19921;-69
2022/09/01 08:38:34;;;;;;;4.13;2.22;;;19.00;99.90;;;;;;5043254;28;20598;-69
2022/09/01 08:41:02;;;;;;;2.50;1.95;;;19.10;99.90;;;;;;5048637;28;20112;-69
2022/09/01 08:44:08;;;;;;;2.20;1.90;;;19.20;99.90;;;;;;5034205;28;20576;-69
2022/09/01 08:46:38;;;;;;;4.00;2.10;;;19.30;99.90;;;;;;5031580;28;20136;-69
2022/09/01 08:49:19;;;;;;;4.57;2.20;;;19.40;99.90;;;;;;5045255;28;20075;-68
2022/09/01 08:52:05;;;;;;;4.18;2.20;;;19.40;99.90;;;;;;5050003;28;20048;-68
2022/09/01 08:54:44;;;;;;;3.10;1.80;;;19.50;99.90;;;;;;5048856;28;20442;-70
2022/09/01 08:57:22;;;;;;;2.40;2.08;;;19.60;99.90;;;;;;5041381;28;20415;-68
2022/09/01 08:59:48;;;;;;;3.65;2.00;;;19.70;99.90;;;;;;5053867;28;20051;-70
2022/09/01 09:02:22;;;;;;;3.50;2.00;;;19.80;99.90;;;;;;5051217;28;20041;-68
2022/09/01 09:05:16;;;;;;;6.90;1.85;;;19.90;99.90;;;;;;5067126;28;20099;-69
2022/09/01 09:08:03;;;;;;;2.70;1.40;;;19.90;99.90;;;;;;5038965;28;20049;-69
2022/09/01 09:10:51;;;;;;;3.42;1.80;;;20.00;99.90;;;;;;5045023;28;20460;-70
2022/09/01 09:13:33;;;;;;;5.28;1.60;;;20.10;99.90;;;;;;5045299;28;20045;-69
2022/09/01 09:16:25;;;;;;;3.22;1.63;;;20.20;99.90;;;;;;5032020;28;20412;-71
2022/09/01 09:18:58;;;;;;;3.20;1.50;;;20.30;99.90;;;;;;5052327;28;20545;-68
2022/09/01 09:21:43;;;;;;;4.18;1.60;;;20.30;99.90;;;;;;5052448;28;20056;-69
2022/09/01 09:24:45;;;;;;;3.05;1.40;;;20.50;99.90;;;;;;5046609;28;20044;-70
2022/09/01 09:27:19;;;;;;;;;;;20.50;99.90;;;;;;5053492;28;20052;-67
2022/09/01 09:29:57;;;;;;;3.28;1.50;;;20.60;99.90;;;;;;5053107;28;20387;-71
2022/09/01 09:32:44;;;;;;;1.80;1.33;;;20.70;99.90;;;;;;5051964;28;20037;-68
2022/09/01 09:35:31;;;;;;;1.92;1.10;;;20.80;99.90;;;;;;5058284;28;20029;-69
2022/09/01 09:38:18;;;;;;;1.77;1.23;;;20.90;99.90;;;;;;5045243;28;20041;-71
2022/09/01 09:41:15;;;;;;;1.80;1.50;;;20.90;99.90;;;;;;5050461;28;20090;-68
2022/09/01 09:43:50;;;;;;;2.38;1.40;;;21.00;99.90;;;;;;5048371;28;20403;-71
2022/09/01 09:46:23;;;;;;;2.28;1.50;;;21.10;99.90;;;;;;5046732;28;20112;-70
2022/09/01 09:49:14;;;;;;;1.52;1.30;;;21.20;99.90;;;;;;5049670;28;20048;-71
2022/09/01 09:51:43;;;;;;;2.13;1.40;;;21.20;99.90;;;;;;5048565;28;20044;-70
2022/09/01 09:54:10;;;;;;;3.33;1.83;;;21.30;99.90;;;;;;5045732;28;20387;-72
2022/09/01 09:56:36;;;;;;;2.42;1.48;;;21.30;99.90;;;;;;5034943;28;20087;-71
2022/09/01 09:59:16;;;;;;;2.00;1.30;;;21.30;99.90;;;;;;5032645;28;20037;-70
2022/09/01 10:01:42;;;;;;;2.20;1.50;;;21.30;99.90;;;;;;5016136;28;20053;-73
2022/09/01 10:04:07;;;;;;;3.17;1.33;;;21.40;99.90;;;;;;5049901;28;20052;-69
2022/09/01 10:06:37;;;;;;;3.28;1.63;;;21.40;99.90;;;;;;5043384;28;20657;-69
2022/09/01 10:09:06;;;;;;;5.53;1.52;;;21.50;99.90;;;;;;5044925;28;20047;-71
2022/09/01 10:11:43;;;;;;;4.20;1.30;;;21.60;99.90;;;;;;5043104;28;20579;-70
2022/09/01 10:14:19;;;;;;;2.75;1.45;;;21.60;99.90;;;;;;5061090;28;20048;-70
2022/09/01 10:16:49;;;;;;;2.60;1.58;;;21.70;99.90;;;;;;5047320;28;20036;-72
2022/09/01 10:19:15;;;;;;;2.42;1.48;;;21.80;99.90;;;;;;5048931;28;20116;-70
2022/09/01 10:21:45;;;;;;;2.38;1.25;;;21.90;99.90;;;;;;5050933;28;20049;-71
2022/09/01 10:24:43;;;;;;;2.13;1.40;;;22.00;99.90;;;;;;5043067;28;20033;-72
2022/09/01 10:27:20;;;;;;;3.28;1.70;;;22.10;99.90;;;;;;5040750;28;20053;-72
2022/09/01 10:30:01;;;;;;;3.55;1.50;;;22.30;99.90;;;;;;5044917;28;20144;-72
2022/09/01 10:32:33;;;;;;;1.90;1.10;;;22.40;99.90;;;;;;5052100;28;20082;-71
2022/09/01 10:35:00;;;;;;;1.55;1.30;;;22.50;99.90;;;;;;5050478;28;20075;-71
2022/09/01 10:37:26;;;;;;;1.77;1.00;;;22.50;99.90;;;;;;5043589;28;20048;-71
2022/09/01 10:40:12;;;;;;;2.60;1.20;;;22.50;99.90;;;;;;5044489;28;20048;-73
2022/09/01 10:42:41;;;;;;;1.58;1.10;;;22.60;99.90;;;;;;5051399;28;20434;-70
2022/09/01 10:45:36;;;;;;;1.60;1.10;;;22.50;99.90;;;;;;5050857;28;20044;-69
2022/09/01 10:48:22;;;;;;;3.33;0.90;;;22.50;99.90;;;;;;5061770;28;20401;-70
2022/09/01 10:50:50;;;;;;;2.30;1.05;;;22.50;99.90;;;;;;5051060;28;20052;-69
2022/09/01 10:53:37;;;;;;;2.78;1.08;;;22.50;99.90;;;;;;5051040;28;20052;-71
2022/09/01 10:56:41;;;;;;;1.63;1.00;;;22.40;99.80;;;;;;5050137;28;20076;-70
2022/09/01 10:59:22;;;;;;;2.10;0.90;;;22.50;99.90;;;;;;5026958;28;20700;-68
2022/09/01 11:01:48;;;;;;;3.55;0.93;;;22.50;98.90;;;;;;5048711;28;20098;-70
2022/09/01 11:04:22;;;;;;;1.88;0.90;;;22.50;99.30;;;;;;5052278;28;20060;-69
2022/09/01 11:06:54;;;;;;;1.70;0.98;;;22.50;99.10;;;;;;5050594;28;20502;-71
2022/09/01 11:09:36;;;;;;;3.40;1.45;;;22.50;99.50;;;;;;5045491;28;20397;-70
2022/09/01 11:12:23;;;;;;;3.25;1.10;;;22.70;99.90;;;;;;5041998;28;20047;-71
2022/09/01 11:14:55;;;;;;;2.15;1.10;;;22.80;99.90;;;;;;5051375;28;20064;-70
2022/09/01 11:17:32;;;;;;;2.17;0.98;;;23.00;99.90;;;;;;5048701;28;20083;-70
2022/09/01 11:20:16;;;;;;;1.83;0.95;;;22.90;97.60;;;;;;5048647;28;20088;-68
2022/09/01 11:22:45;;;;;;;2.83;1.05;;;22.90;98.40;;;;;;5049472;28;20072;-71
2022/09/01 11:25:31;;;;;;;2.78;0.93;;;23.10;99.20;;;;;;5049804;28;20484;-73
2022/09/01 11:28:00;;;;;;;1.90;0.90;;;23.20;98.40;;;;;;5046157;28;20045;-71
2022/09/01 11:30:53;;;;;;;2.30;0.80;;;23.20;97.90;;;;;;5048945;28;20080;-70
2022/09/01 11:33:22;;;;;;;1.08;0.90;;;23.20;97.60;;;;;;5059559;28;20091;-69
2022/09/01 11:35:59;;;;;;;3.95;1.08;;;23.30;97.80;;;;;;5046242;28;20103;-70
2022/09/01 11:38:27;;;;;;;1.48;1.00;;;23.30;97.70;;;;;;5051124;28;20041;-71
2022/09/01 11:40:56;;;;;;;3.42;0.93;;;23.40;97.20;;;;;;5050187;28;20041;-69
2022/09/01 11:43:25;;;;;;;2.10;0.93;;;23.30;97.20;;;;;;5048649;28;20037;-69
2022/09/01 11:46:33;;;;;;;0.90;0.80;;;23.30;97.30;;;;;;5050856;28;20119;-71
2022/09/01 11:49:21;;;;;;;1.65;0.90;;;23.30;96.80;;;;;;5055048;28;20048;-67
2022/09/01 11:51:47;;;;;;;1.52;0.88;;;23.10;97.10;;;;;;5057338;28;20148;-69
2022/09/01 11:54:14;;;;;;;3.33;0.90;;;22.90;97.30;;;;;;5050681;28;20120;-69
2022/09/01 11:56:40;;;;;;;1.13;0.90;;;22.80;97.10;;;;;;5046297;28;20045;-72
2022/09/01 11:59:06;;;;;;;2.67;1.10;;;22.80;97.20;;;;;;5047258;28;20044;-73
2022/09/01 12:01:38;;;;;;;2.80;0.90;;;22.90;97.40;;;;;;5046360;28;20067;-70
2022/09/01 12:04:27;;;;;;;2.28;1.00;;;23.00;97.10;;;;;;5043888;28;20079;-69
2022/09/01 12:06:55;;;;;;;1.63;0.90;;;23.00;96.50;;;;;;5047837;28;20140;-71
2022/09/01 12:09:21;;;;;;;1.88;1.00;;;23.00;97.10;;;;;;5061316;28;20036;-70
2022/09/01 12:11:47;;;;;;;3.25;0.82;;;22.90;96.90;;;;;;5057187;28;20098;-70
2022/09/01 12:14:19;;;;;;;1.33;1.00;;;22.90;96.80;;;;;;5043313;28;20040;-70
2022/09/01 12:17:05;;;;;;;1.77;1.13;;;23.00;96.60;;;;;;5045323;28;20123;-70
2022/09/01 12:19:33;;;;;;;1.45;1.13;;;23.20;95.60;;;;;;5049023;28;20041;-70
2022/09/01 12:22:21;;;;;;;1.55;1.10;;;23.20;96.30;;;;;;5046499;28;20055;-71
2022/09/01 12:24:53;;;;;;;1.92;1.00;;;23.40;96.60;;;;;;5047723;28;20059;-69
2022/09/01 12:27:22;;;;;;;1.67;0.90;;;23.50;95.50;;;;;;5052122;28;20044;-69
2022/09/01 12:29:48;;;;;;;3.58;1.20;;;23.60;95.80;;;;;;5046702;28;20072;-71
2022/09/01 12:32:15;;;;;;;0.93;0.85;;;23.60;95.20;;;;;;5042213;28;20037;-70
2022/09/01 12:35:03;;;;;;;3.65;1.10;;;23.60;95.50;;;;;;5060410;28;20033;-69
2022/09/01 12:37:30;;;;;;;2.47;1.10;;;23.50;94.10;;;;;;5045826;28;20420;-69
2022/09/01 12:39:57;;;;;;;1.70;1.08;;;23.30;94.80;;;;;;5047901;28;20396;-70
2022/09/01 12:42:29;;;;;;;1.13;1.02;;;23.20;94.70;;;;;;5029489;28;20556;-69
2022/09/01 12:44:58;;;;;;;3.22;1.00;;;23.20;94.80;;;;;;5029808;28;20441;-67
2022/09/01 12:47:50;;;;;;;2.05;1.17;;;23.30;95.30;;;;;;5045406;28;20044;-69
2022/09/01 12:50:16;;;;;;;2.53;0.90;;;23.50;95.30;;;;;;5027700;28;20069;-70
2022/09/01 12:52:54;;;;;;;2.10;1.20;;;23.60;94.90;;;;;;5036388;28;20093;-70
2022/09/01 12:55:29;;;;;;;1.33;0.88;;;23.60;93.60;;;;;;5043840;28;20083;-71
2022/09/01 12:57:57;;;;;;;1.40;1.00;;;23.70;93.90;;;;;;5029696;28;20056;-71
2022/09/01 13:00:29;;;;;;;4.90;1.20;;;23.70;94.10;;;;;;5034904;28;20113;-70
2022/09/01 13:03:03;;;;;;;4.18;1.40;;;23.70;93.60;;;;;;5046352;28;20118;-71
2022/09/01 13:05:32;;;;;;;1.40;1.30;;;23.70;93.80;;;;;;5048562;28;20447;-70
2022/09/01 13:08:07;;;;;;;3.33;1.10;;;23.70;94.10;;;;;;5048796;28;20107;-70
2022/09/01 13:10:47;;;;;;;5.30;1.00;;;23.80;93.00;;;;;;5047278;28;20032;-72
2022/09/01 13:13:15;;;;;;;4.43;1.20;;;23.80;93.10;;;;;;5025917;28;20045;-69